Time;durP1;ratioP1;P1;durP2;ratioP2;P2;SDS_P1;SDS_P2;PMS_P1;PMS_P2;Temp;Humidity;BMP_temperature;BMP_pressure;BME280_temperature;BME280_humidity;BME280_pressure;Samples;Min_cycle;Max_cycle;Signal;HPM_P1;HPM_P2
2023/11/24 00:02:13;;;;;;;6.30;1.70;;;;;;;7.06;100.00;97026.25;135673;1279;22585;-69
2023/11/24 00:05:16;;;;;;;4.10;1.10;;;;;;;6.92;100.00;97011.48;135711;1272;22649;-68
2023/11/24 00:08:17;;;;;;;3.80;1.30;;;;;;;6.93;100.00;97007.45;135707;1279;23901;-70
2023/11/24 00:11:18;;;;;;;4.60;1.00;;;;;;;6.94;100.00;97001.77;135713;1279;22539;-68
2023/11/24 00:14:19;;;;;;;5.90;0.90;;;;;;;7.02;100.00;97006.27;135678;1279;22534;-70
2023/11/24 00:17:22;;;;;;;2.80;0.80;;;;;;;7.05;100.00;96998.85;135655;1274;22628;-70
2023/11/24 00:20:24;;;;;;;0.80;0.40;;;;;;;6.94;100.00;97004.90;135618;1279;22541;-69
2023/11/24 00:23:25;;;;;;;3.60;0.80;;;;;;;6.90;100.00;97001.76;135632;1279;22527;-70
2023/11/24 00:26:26;;;;;;;3.90;0.60;;;;;;;6.92;100.00;96998.26;135664;1279;22675;-70
2023/11/24 00:29:27;;;;;;;1.10;0.40;;;;;;;6.81;100.00;97001.41;135672;1279;22530;-70
2023/11/24 00:32:29;;;;;;;1.60;0.30;;;;;;;6.82;100.00;96996.96;135649;1261;22562;-69
2023/11/24 00:35:31;;;;;;;0.90;0.40;;;;;;;6.80;100.00;96987.91;135651;1279;22527;-71
2023/11/24 00:38:32;;;;;;;1.40;0.30;;;;;;;6.86;100.00;97001.16;135670;1279;22584;-72
2023/11/24 00:41:33;;;;;;;2.10;0.50;;;;;;;6.91;100.00;96986.94;135696;1279;22552;-73
2023/11/24 00:44:34;;;;;;;1.60;0.40;;;;;;;6.87;100.00;96979.01;135751;1279;22546;-71
2023/11/24 00:47:35;;;;;;;3.90;0.40;;;;;;;6.84;100.00;96969.55;135676;1279;24258;-70
2023/11/24 00:50:36;;;;;;;1.50;0.50;;;;;;;6.76;100.00;96996.32;135737;1279;22536;-68
2023/11/24 00:53:37;;;;;;;4.60;0.70;;;;;;;6.93;100.00;96957.52;135703;1278;22638;-72
2023/11/24 00:56:40;;;;;;;3.10;0.30;;;;;;;6.88;100.00;96993.88;135730;1260;22563;-71
2023/11/24 00:59:41;;;;;;;1.20;0.50;;;;;;;6.58;100.00;96957.86;135731;1279;22532;-70
2023/11/24 01:02:43;;;;;;;3.70;0.40;;;;;;;6.60;100.00;96979.11;135696;1278;22534;-74
2023/11/24 01:05:44;;;;;;;1.80;0.30;;;;;;;6.68;100.00;96959.09;135690;1279;22519;-69
2023/11/24 01:08:45;;;;;;;2.60;0.60;;;;;;;6.75;100.00;96956.48;135706;1279;22549;-71
2023/11/24 01:11:48;;;;;;;2.10;0.40;;;;;;;6.85;100.00;96951.36;135702;1279;22538;-72
2023/11/24 01:14:49;;;;;;;1.50;0.50;;;;;;;6.90;100.00;96946.15;135722;1259;22603;-71
2023/11/24 01:17:51;;;;;;;3.70;0.80;;;;;;;6.90;100.00;96951.31;135701;1279;22547;-73
2023/11/24 01:20:52;;;;;;;3.20;0.90;;;;;;;7.03;100.00;96952.13;135720;1279;23877;-70
2023/11/24 01:23:53;;;;;;;5.50;0.90;;;;;;;7.21;100.00;96947.61;135667;1279;22544;-72
2023/11/24 01:26:55;;;;;;;3.00;0.80;;;;;;;7.32;100.00;96934.05;135685;1279;22642;-72
2023/11/24 01:29:56;;;;;;;2.30;0.50;;;;;;;7.42;100.00;96933.98;135702;1279;22551;-69
2023/11/24 01:32:58;;;;;;;2.70;0.50;;;;;;;7.34;100.00;96930.12;135712;1279;24376;-70
2023/11/24 01:36:00;;;;;;;1.00;0.40;;;;;;;7.34;100.00;96920.38;135692;1279;22633;-72
2023/11/24 01:39:04;;;;;;;;;;;;;;;7.34;100.00;96927.66;135914;1276;22529;-72
2023/11/24 01:42:05;;;;;;;2.60;0.80;;;;;;;7.27;100.00;96927.66;135904;1257;23589;-68
2023/11/24 01:45:07;;;;;;;2.20;1.00;;;;;;;7.38;100.00;96932.89;135887;1276;22522;-70
2023/11/24 01:48:08;;;;;;;6.40;1.60;;;;;;;7.46;100.00;96911.59;135890;1276;22517;-71
2023/11/24 01:51:09;;;;;;;7.70;1.50;;;;;;;7.52;100.00;96916.86;135885;1275;22555;-71
2023/11/24 01:54:10;;;;;;;3.90;1.20;;;;;;;7.42;100.00;96914.66;135906;1276;22540;-70
2023/11/24 01:57:12;;;;;;;4.40;1.20;;;;;;;7.40;100.00;96880.60;135942;1276;22526;-71
2023/11/24 02:00:13;;;;;;;6.10;1.10;;;;;;;7.31;100.00;96872.09;135917;1276;22535;-72
2023/11/24 02:03:14;;;;;;;5.80;1.40;;;;;;;7.40;100.00;96871.33;135912;1276;22538;-70
2023/11/24 02:06:15;;;;;;;5.90;1.70;;;;;;;7.38;100.00;96874.11;135886;1276;22529;-69
2023/11/24 02:09:16;;;;;;;6.60;2.10;;;;;;;7.31;100.00;96870.85;135886;1276;22539;-70
2023/11/24 02:12:19;;;;;;;5.10;1.50;;;;;;;7.19;100.00;96881.32;135904;1276;22559;-70
2023/11/24 02:15:20;;;;;;;;;;;;;;;7.16;100.00;96886.99;135910;1276;22503;-70
2023/11/24 02:32:15;;;;;;;6.20;1.20;;;;;;;6.80;100.00;96825.64;131051;1319;558048;-70
2023/11/24 02:35:18;;;;;;;4.20;0.90;;;;;;;7.13;100.00;96811.77;130598;1291;5318614;-71
2023/11/24 03:17:23;;;;;;;8.30;1.10;;;;;;;6.75;100.00;96822.25;131819;1310;557965;-71
2023/11/24 03:20:36;;;;;;;;;;;;;;;7.10;100.00;96818.47;130514;1293;5317200;-70
2023/11/24 03:23:39;;;;;;;5.30;1.20;;;;;;;6.93;100.00;96830.00;134513;1292;22549;-67
2023/11/24 03:26:41;;;;;;;9.70;2.10;;;;;;;6.84;100.00;96835.39;134504;1293;22557;-73
2023/11/24 03:29:44;;;;;;;9.60;1.50;;;;;;;6.90;100.00;96854.23;134904;1286;22564;-72
2023/11/24 03:32:47;;;;;;;6.00;0.90;;;;;;;6.86;100.00;96842.71;134876;1286;22552;-71
2023/11/24 03:35:50;;;;;;;7.20;1.30;;;;;;;6.70;100.00;96860.83;134879;1286;22550;-71
2023/11/24 03:38:53;;;;;;;2.90;0.90;;;;;;;6.61;100.00;96854.85;134883;1286;22597;-71
2023/11/24 03:41:56;;;;;;;7.90;1.50;;;;;;;6.51;100.00;96865.73;134899;1286;22545;-72
2023/11/24 03:44:59;;;;;;;7.00;1.00;;;;;;;6.32;100.00;96824.08;134901;1286;22580;-71
2023/11/24 03:48:02;;;;;;;7.00;1.50;;;;;;;6.30;100.00;96817.30;134881;1266;22546;-72
2023/11/24 03:51:06;;;;;;;11.30;1.60;;;;;;;6.28;100.00;96809.44;134860;1286;22655;-71
2023/11/24 03:54:08;;;;;;;6.90;1.70;;;;;;;6.30;100.00;96793.67;134896;1286;24398;-71
2023/11/24 03:57:11;;;;;;;8.90;1.10;;;;;;;6.40;100.00;96791.15;134899;1286;25422;-71
2023/11/24 04:00:14;;;;;;;6.10;1.50;;;;;;;6.38;100.00;96796.38;134873;1286;22548;-72
2023/11/24 04:03:17;;;;;;;7.40;1.30;;;;;;;6.38;100.00;96815.11;134904;1267;22543;-70
2023/11/24 04:06:19;;;;;;;;;;;;;;;6.40;100.00;96832.17;134902;1286;25572;-72
2023/11/24 04:09:22;;;;;;;10.90;1.70;;;;;;;6.47;100.00;96810.05;135026;1284;25409;-70
2023/11/24 04:12:25;;;;;;;6.70;1.70;;;;;;;6.44;100.00;96797.13;135024;1267;22932;-71
2023/11/24 04:15:27;;;;;;;7.50;1.60;;;;;;;6.46;100.00;96804.09;134992;1284;25509;-71
2023/11/24 04:18:30;;;;;;;13.50;2.10;;;;;;;6.47;100.00;96809.77;134997;1284;22942;-69
2023/11/24 04:21:34;;;;;;;;;;;;;;;6.60;100.00;96814.64;135029;1284;22503;-72
2023/11/24 04:24:37;;;;;;;12.20;2.30;;;;;;;6.68;100.00;96813.01;135011;1267;22540;-72
2023/11/24 04:27:39;;;;;;;12.60;2.30;;;;;;;6.64;100.00;96817.48;134991;1284;22559;-70
2023/11/24 04:30:42;;;;;;;17.60;2.90;;;;;;;6.61;100.00;96813.74;135009;1284;22558;-71
2023/11/24 04:33:44;;;;;;;11.90;2.20;;;;;;;6.65;100.00;96805.45;134988;1284;22579;-73
2023/11/24 04:36:47;;;;;;;;;;;;;;;6.67;100.00;96810.00;134997;1284;22524;-71
2023/11/24 04:39:50;;;;;;;;;;;;;;;6.54;100.00;96805.94;135016;1284;22637;-71
2023/11/24 04:42:53;;;;;;;12.80;1.80;;;;;;;6.33;100.00;96809.79;134976;1284;22663;-70
2023/11/24 04:45:55;;;;;;;5.20;0.70;;;;;;;6.21;100.00;96796.63;134971;1284;22555;-72
2023/11/24 04:49:02;;;;;;;;;;;;;;;5.99;100.00;96804.98;134963;1284;22520;-71
2023/11/24 04:52:05;;;;;;;10.60;1.50;;;;;;;5.84;100.00;96809.00;134992;1284;22539;-72
2023/11/24 04:55:08;;;;;;;7.80;1.20;;;;;;;5.84;100.00;96812.86;134961;1284;22542;-71
2023/11/24 04:58:10;;;;;;;7.80;1.90;;;;;;;5.77;100.00;96820.32;134981;1284;23049;-70
2023/11/24 05:01:13;;;;;;;7.20;1.30;;;;;;;5.75;100.00;96822.55;134961;1284;23148;-69
2023/11/24 05:04:15;;;;;;;15.10;2.00;;;;;;;5.58;100.00;96825.36;134964;1284;25355;-69
2023/11/24 05:07:19;;;;;;;8.40;0.90;;;;;;;5.45;100.00;96829.91;134972;1284;22536;-71
2023/11/24 05:10:21;;;;;;;14.50;2.20;;;;;;;5.33;100.00;96845.45;135008;1264;22644;-71
2023/11/24 05:13:24;;;;;;;6.60;1.30;;;;;;;5.24;100.00;96843.86;134985;1266;22549;-71
2023/11/24 05:16:27;;;;;;;17.50;2.40;;;;;;;5.25;100.00;96843.30;135023;1284;24261;-70
2023/11/24 05:19:29;;;;;;;;;;;;;;;5.23;100.00;96837.16;134996;1284;22523;-71
2023/11/24 05:22:34;;;;;;;10.90;1.60;;;;;;;5.17;100.00;96840.02;134988;1284;22544;-72
2023/11/24 05:25:37;;;;;;;6.60;1.30;;;;;;;5.06;100.00;96844.96;134984;1283;22529;-71
2023/11/24 05:28:39;;;;;;;;;;;;;;;5.06;100.00;96854.70;134981;1284;26016;-71
2023/11/24 05:31:42;;;;;;;13.80;2.00;;;;;;;5.14;100.00;96856.02;134992;1284;25551;-71
2023/11/24 05:34:44;;;;;;;7.30;1.10;;;;;;;5.09;100.00;96860.17;134957;1284;22551;-71
2023/11/24 05:37:47;;;;;;;8.00;1.10;;;;;;;5.04;100.00;96868.45;134970;1284;22565;-70
2023/11/24 05:40:50;;;;;;;8.50;1.50;;;;;;;4.97;100.00;96859.58;134979;1284;22551;-71
2023/11/24 05:43:53;;;;;;;10.40;1.60;;;;;;;4.99;100.00;96855.30;134956;1284;22539;-74
2023/11/24 05:46:56;;;;;;;12.60;1.50;;;;;;;5.03;100.00;96853.80;134960;1284;22568;-72
2023/11/24 05:49:58;;;;;;;8.80;1.30;;;;;;;5.11;100.00;96854.29;134968;1284;24114;-71
2023/11/24 05:53:01;;;;;;;;;;;;;;;5.12;100.00;96861.53;135000;1284;22622;-70
2023/11/24 05:56:05;;;;;;;8.90;1.50;;;;;;;5.11;100.00;96857.92;134965;1284;22548;-72
2023/11/24 05:59:08;;;;;;;11.50;1.60;;;;;;;5.14;100.00;96862.23;135004;1284;22569;-72
2023/11/24 06:02:10;;;;;;;7.20;1.20;;;;;;;5.15;100.00;96879.50;134977;1284;22538;-72
2023/11/24 06:05:15;;;;;;;7.60;1.10;;;;;;;5.13;100.00;96893.31;134974;1284;22583;-72
2023/11/24 06:08:18;;;;;;;15.10;2.80;;;;;;;5.09;100.00;96900.90;134971;1284;25624;-71
2023/11/24 06:11:20;;;;;;;;;;;;;;;5.14;100.00;96894.48;135311;1281;22615;-71
2023/11/24 06:14:23;;;;;;;13.80;2.70;;;;;;;5.19;100.00;96890.98;135239;1281;22663;-72
2023/11/24 06:17:25;;;;;;;;;;;;;;;5.08;100.00;96890.58;135313;1281;22546;-73
2023/11/24 06:20:28;;;;;;;14.70;2.40;;;;;;;5.27;100.00;96902.22;135263;1281;22549;-72
2023/11/24 06:23:30;;;;;;;;;;;;;;;5.24;100.00;96909.68;135315;1281;22517;-71
2023/11/24 06:26:34;;;;;;;18.40;2.90;;;;;;;5.16;100.00;96907.83;135247;1281;24242;-72
2023/11/24 06:29:36;;;;;;;13.80;2.80;;;;;;;5.21;100.00;96908.88;135294;1281;22554;-71
2023/11/24 06:32:39;;;;;;;20.90;3.20;;;;;;;5.18;100.00;96907.02;135244;1281;22540;-71
2023/11/24 06:35:42;;;;;;;;;;;;;;;5.17;100.00;96912.96;135307;1281;22648;-72
2023/11/24 06:38:45;;;;;;;18.90;3.00;;;;;;;5.11;100.00;96924.99;135255;1281;22536;-70
2023/11/24 06:41:48;;;;;;;22.30;2.80;;;;;;;5.08;100.00;96933.52;135259;1281;22551;-72
2023/11/24 06:44:51;;;;;;;15.30;2.50;;;;;;;5.24;100.00;96927.91;135257;1281;22554;-71
2023/11/24 06:47:53;;;;;;;16.80;3.50;;;;;;;5.23;100.00;96923.86;135320;1278;24391;-71
2023/11/24 06:50:57;;;;;;;17.10;2.50;;;;;;;5.26;100.00;96921.52;135314;1281;22569;-71
2023/11/24 06:54:00;;;;;;;18.10;3.10;;;;;;;5.19;100.00;96927.73;135236;1264;22570;-70
2023/11/24 06:57:02;;;;;;;;;;;;;;;5.38;100.00;96929.33;135300;1281;22530;-71
2023/11/24 07:00:05;;;;;;;16.80;2.70;;;;;;;5.31;100.00;96944.92;135272;1281;22554;-73
2023/11/24 07:03:08;;;;;;;17.50;2.90;;;;;;;5.35;100.00;96930.61;135249;1261;22547;-72
2023/11/24 07:06:11;;;;;;;12.50;2.30;;;;;;;5.53;100.00;96933.70;135241;1281;26619;-71
2023/11/24 07:09:14;;;;;;;18.50;3.60;;;;;;;5.51;100.00;96935.70;135266;1281;22548;-71
2023/11/24 07:12:17;;;;;;;22.40;3.20;;;;;;;5.60;100.00;96930.59;135270;1281;22563;-71
2023/11/24 07:15:20;;;;;;;16.40;3.10;;;;;;;5.61;100.00;96933.81;135223;1281;22651;-71
2023/11/24 07:18:23;;;;;;;21.80;3.50;;;;;;;5.62;100.00;96932.91;135268;1281;22539;-72
2023/11/24 07:21:26;;;;;;;20.50;2.70;;;;;;;5.65;100.00;96935.61;135194;1281;22654;-71
2023/11/24 07:24:28;;;;;;;23.70;2.80;;;;;;;5.69;100.00;96936.36;135274;1281;22659;-70
2023/11/24 07:27:31;;;;;;;21.70;3.80;;;;;;;5.90;100.00;96935.96;135255;1281;22529;-70
2023/11/24 07:30:34;;;;;;;21.90;3.70;;;;;;;6.01;100.00;96933.93;135267;1280;22546;-70
2023/11/24 07:33:37;;;;;;;16.30;2.60;;;;;;;6.10;100.00;96922.23;135231;1266;23146;-70
2023/11/24 07:36:40;;;;;;;19.30;3.10;;;;;;;6.02;100.00;96925.74;135275;1279;22594;-70
2023/11/24 07:39:42;;;;;;;23.70;3.30;;;;;;;6.12;100.00;96912.83;135243;1281;22544;-73
2023/11/24 07:42:46;;;;;;;20.70;3.60;;;;;;;6.00;100.00;96914.06;135295;1281;25429;-71
2023/11/24 07:45:50;;;;;;;24.30;3.70;;;;;;;6.05;100.00;96905.89;135319;1281;22524;-72
2023/11/24 07:48:53;;;;;;;24.30;3.90;;;;;;;6.10;100.00;96898.95;135253;1265;22530;-73
2023/11/24 07:51:56;;;;;;;16.10;4.60;;;;;;;6.11;100.00;96900.95;135283;1281;22543;-71
2023/11/24 07:54:58;;;;;;;;;;;;;;;6.19;100.00;96887.67;135321;1281;22503;-71
2023/11/24 07:58:01;;;;;;;22.10;4.40;;;;;;;6.24;100.00;96883.99;135239;1280;22528;-72
2023/11/24 08:01:03;;;;;;;23.70;5.00;;;;;;;6.36;100.00;96879.70;135285;1281;22544;-72
2023/11/24 08:04:06;;;;;;;27.20;6.50;;;;;;;6.32;100.00;96869.39;135296;1280;22619;-71
2023/11/24 08:07:09;;;;;;;;;;;;;;;6.48;100.00;96872.35;135316;1281;22537;-71
2023/11/24 08:10:12;;;;;;;26.60;7.60;;;;;;;6.46;100.00;96875.46;135298;1281;22547;-70
2023/11/24 08:13:15;;;;;;;34.50;9.30;;;;;;;6.46;100.00;96870.95;135302;1280;22565;-71
2023/11/24 08:16:18;;;;;;;24.40;5.00;;;;;;;6.48;100.00;96873.40;135278;1266;22533;-70
2023/11/24 08:19:23;;;;;;;29.30;7.00;;;;;;;6.42;100.00;96867.27;135253;1266;22613;-71
2023/11/24 08:22:28;;;;;;;20.10;3.80;;;;;;;6.40;100.00;96862.73;135283;1281;22542;-71
2023/11/24 08:25:30;;;;;;;26.40;3.90;;;;;;;6.43;100.00;96870.17;135261;1272;22562;-70
2023/11/24 08:28:33;;;;;;;;;;;;;;;6.61;100.00;96865.52;135310;1281;22530;-71
2023/11/24 08:31:35;;;;;;;17.90;3.30;;;;;;;6.85;100.00;96869.73;135268;1281;22541;-72
2023/11/24 08:34:38;;;;;;;22.90;3.10;;;;;;;6.75;100.00;96868.52;135256;1280;22532;-72
2023/11/24 08:37:41;;;;;;;23.10;3.80;;;;;;;6.77;100.00;96860.98;135261;1263;22533;-71
2023/11/24 08:40:44;;;;;;;19.10;3.90;;;;;;;6.81;100.00;96852.99;135255;1267;22553;-73
2023/11/24 08:43:46;;;;;;;27.90;4.20;;;;;;;6.91;100.00;96838.70;135246;1280;22546;-71
2023/11/24 08:46:49;;;;;;;22.90;3.90;;;;;;;7.00;100.00;96840.04;135227;1281;22560;-72
2023/11/24 08:49:51;;;;;;;;;;;;;;;7.24;100.00;96838.56;135236;1281;22535;-72
2023/11/24 08:52:54;;;;;;;25.10;3.70;;;;;;;7.31;100.00;96838.91;135283;1281;26626;-70
2023/11/24 08:55:56;;;;;;;18.90;2.90;;;;;;;7.33;100.00;96840.77;135257;1281;26610;-71
2023/11/24 08:58:59;;;;;;;;;;;;;;;7.32;100.00;96837.73;135272;1264;22650;-71
2023/11/24 09:02:04;;;;;;;23.10;3.90;;;;;;;7.23;100.00;96833.55;135242;1269;22539;-72
2023/11/24 09:05:07;;;;;;;21.10;3.50;;;;;;;7.09;100.00;96841.30;135264;1281;25346;-71
2023/11/24 09:08:10;;;;;;;21.30;3.50;;;;;;;7.26;100.00;96836.44;135281;1281;22532;-72
2023/11/24 09:11:13;;;;;;;11.10;2.30;;;;;;;7.39;100.00;96826.61;135247;1281;22556;-72
2023/11/24 09:14:16;;;;;;;23.40;3.30;;;;;;;7.46;100.00;96827.25;135270;1281;22564;-71
2023/11/24 09:17:18;;;;;;;;;;;;;;;7.56;100.00;96818.95;135250;1281;26509;-70
2023/11/24 09:20:22;;;;;;;19.30;2.80;;;;;;;7.61;100.00;96822.23;135284;1281;22546;-71
2023/11/24 09:23:27;;;;;;;16.40;3.30;;;;;;;7.80;100.00;96815.98;135264;1280;22539;-70
2023/11/24 09:26:29;;;;;;;15.80;2.90;;;;;;;7.73;100.00;96812.23;135283;1281;22562;-70
2023/11/24 09:29:32;;;;;;;;;;;;;;;7.69;100.00;96812.68;135288;1281;22534;-71
2023/11/24 09:32:34;;;;;;;12.60;2.10;;;;;;;7.56;100.00;96804.73;135247;1281;22682;-69
2023/11/24 09:35:38;;;;;;;20.80;2.60;;;;;;;7.38;100.00;96805.66;135263;1281;22539;-70
2023/11/24 09:38:40;;;;;;;12.60;2.00;;;;;;;7.47;100.00;96802.17;135252;1281;24541;-71
2023/11/24 09:41:43;;;;;;;13.40;1.60;;;;;;;7.44;100.00;96823.56;135188;1266;22624;-70
2023/11/24 09:44:45;;;;;;;;;;;;;;;7.33;100.00;96807.23;135239;1281;22534;-71
2023/11/24 09:47:49;;;;;;;13.70;2.30;;;;;;;7.29;100.00;96818.70;135203;1281;22677;-71
2023/11/24 09:50:52;;;;;;;21.80;2.90;;;;;;;7.30;100.00;96814.64;135228;1281;22645;-70
2023/11/24 09:53:55;;;;;;;16.00;2.30;;;;;;;7.34;100.00;96825.95;135285;1281;22562;-70
2023/11/24 09:56:57;;;;;;;16.10;2.50;;;;;;;7.24;100.00;96821.66;135248;1281;22525;-69
2023/11/24 10:00:00;;;;;;;14.40;2.10;;;;;;;7.11;100.00;96814.95;135268;1281;22547;-72
2023/11/24 10:03:03;;;;;;;;;;;;;;;6.99;100.00;96792.95;135299;1281;24266;-69
2023/11/24 10:06:05;;;;;;;18.60;2.30;;;;;;;6.87;100.00;96802.88;135261;1281;22536;-70
2023/11/24 10:09:10;;;;;;;17.70;2.80;;;;;;;6.88;100.00;96793.90;135292;1281;22562;-70
2023/11/24 10:12:13;;;;;;;13.70;1.80;;;;;;;6.90;100.00;96797.57;135256;1266;22555;-71
2023/11/24 10:15:16;;;;;;;15.20;2.70;;;;;;;6.87;100.00;96784.59;135263;1281;22536;-71
2023/11/24 10:18:19;;;;;;;17.10;3.00;;;;;;;6.98;100.00;96780.45;135258;1281;22647;-70
2023/11/24 10:21:22;;;;;;;22.10;3.40;;;;;;;7.09;100.00;96781.52;135275;1281;22542;-71
2023/11/24 10:24:25;;;;;;;20.60;2.90;;;;;;;6.98;100.00;96787.90;135295;1281;22566;-71
2023/11/24 10:27:30;;;;;;;17.50;2.90;;;;;;;6.77;100.00;96789.35;135302;1281;22573;-72
2023/11/24 10:30:33;;;;;;;17.70;2.50;;;;;;;6.70;100.00;96798.11;135268;1267;22593;-70
2023/11/24 10:33:36;;;;;;;22.00;4.00;;;;;;;6.73;100.00;96774.42;135270;1281;22568;-71
2023/11/24 10:36:39;;;;;;;11.60;2.30;;;;;;;6.76;100.00;96779.58;135284;1281;24220;-72
2023/11/24 10:39:41;;;;;;;;;;;;;;;6.67;100.00;96769.10;135282;1281;22515;-71
2023/11/24 10:42:47;;;;;;;18.50;2.40;;;;;;;6.74;100.00;96772.95;135249;1281;22584;-70
2023/11/24 10:45:50;;;;;;;26.40;4.40;;;;;;;6.68;100.00;96766.08;135259;1266;24231;-72
2023/11/24 10:48:53;;;;;;;15.90;3.30;;;;;;;6.79;100.00;96763.48;135260;1281;22547;-71
2023/11/24 10:51:56;;;;;;;24.70;3.90;;;;;;;6.84;100.00;96759.48;135260;1261;22539;-73
2023/11/24 10:55:00;;;;;;;13.60;2.90;;;;;;;6.89;100.00;96750.42;135260;1281;22652;-72
2023/11/24 10:58:03;;;;;;;;;;;;;;;6.79;100.00;96759.17;135252;1281;22577;-70
2023/11/24 11:01:06;;;;;;;19.70;2.20;;;;;;;6.91;100.00;96749.76;135259;1281;22566;-70
2023/11/24 11:04:09;;;;;;;15.80;2.70;;;;;;;6.95;100.00;96748.51;135285;1281;22587;-70
2023/11/24 11:07:14;;;;;;;19.40;2.70;;;;;;;7.20;100.00;96740.27;135255;1281;24564;-69
2023/11/24 11:10:25;;;;;;;15.80;2.40;;;;;;;7.50;100.00;96739.59;135287;1281;22564;-71
2023/11/24 11:13:30;;;;;;;12.00;2.40;;;;;;;7.68;100.00;96735.77;135250;1281;22555;-73
2023/11/24 11:16:32;;;;;;;9.80;2.10;;;;;;;7.70;100.00;96743.02;135279;1281;22574;-70
2023/11/24 11:19:35;;;;;;;24.20;3.50;;;;;;;7.65;100.00;96726.79;135283;1281;22530;-72
2023/11/24 11:22:37;;;;;;;;;;;;;;;7.99;100.00;96717.64;135287;1281;22520;-71
2023/11/24 11:25:40;;;;;;;;;;;;;;;8.29;100.00;96718.27;135288;1281;26650;-70
2023/11/24 11:28:45;;;;;;;20.10;3.10;;;;;;;8.43;100.00;96713.79;135278;1281;22547;-70
2023/11/24 11:31:48;;;;;;;14.90;2.30;;;;;;;8.16;100.00;96709.27;135259;1279;22644;-73
2023/11/24 11:34:51;;;;;;;;;;;;;;;7.92;100.00;96710.26;135273;1281;22514;-71
2023/11/24 11:37:53;;;;;;;13.30;2.30;;;;;;;7.84;100.00;96710.58;135249;1281;24363;-70
2023/11/24 11:40:57;;;;;;;10.90;2.00;;;;;;;7.52;100.00;96730.10;135254;1281;22539;-70
2023/11/24 11:44:00;;;;;;;10.40;2.10;;;;;;;7.05;100.00;96749.30;135296;1281;22543;-69
2023/11/24 11:47:03;;;;;;;10.90;1.90;;;;;;;6.53;100.00;96753.88;135251;1281;24272;-70
2023/11/24 11:50:06;;;;;;;18.40;2.80;;;;;;;6.35;100.00;96727.33;135290;1281;24374;-70
2023/11/24 11:53:08;;;;;;;8.90;2.10;;;;;;;6.30;100.00;96733.83;135293;1281;22584;-71
2023/11/24 11:56:12;;;;;;;12.00;2.00;;;;;;;6.30;100.00;96731.50;135242;1281;22543;-69
2023/11/24 11:59:16;;;;;;;12.90;2.20;;;;;;;6.63;100.00;96730.04;135268;1281;22542;-69
2023/11/24 12:02:20;;;;;;;8.70;1.60;;;;;;;6.69;100.00;96791.39;135291;1281;22558;-69
2023/11/24 12:05:23;;;;;;;8.10;1.50;;;;;;;5.63;100.00;96806.75;135252;1281;22649;-70
2023/11/24 12:08:27;;;;;;;7.00;1.00;;;;;;;4.85;100.00;96815.05;135216;1281;22552;-70
2023/11/24 12:11:29;;;;;;;13.10;2.20;;;;;;;4.36;100.00;96821.55;135201;1262;22543;-70
2023/11/24 12:14:32;;;;;;;11.20;2.20;;;;;;;4.11;100.00;96808.16;135275;1281;22678;-69
2023/11/24 12:17:35;;;;;;;;;;;;;;;4.07;100.00;96805.30;135306;1281;22516;-70
2023/11/24 12:20:37;;;;;;;7.50;1.50;;;;;;;4.08;100.00;96806.30;135248;1281;22536;-70
2023/11/24 12:23:40;;;;;;;;;;;;;;;4.11;100.00;96792.23;135200;1281;24217;-70
2023/11/24 12:26:44;;;;;;;15.80;2.10;;;;;;;4.18;100.00;96775.85;135227;1281;25303;-70
2023/11/24 12:29:50;;;;;;;7.00;1.60;;;;;;;4.30;100.00;96766.70;135270;1281;22538;-70
2023/11/24 12:32:52;;;;;;;5.90;1.40;;;;;;;4.35;100.00;96761.52;135243;1281;22539;-69
2023/11/24 12:35:55;;;;;;;;;;;;;;;4.43;100.00;96759.45;135297;1262;22745;-70
2023/11/24 12:38:58;;;;;;;13.00;1.90;;;;;;;4.56;100.00;96746.62;135261;1281;22550;-70
2023/11/24 12:42:00;;;;;;;;;;;;;;;4.55;100.00;96754.45;135283;1281;22722;-69
2023/11/24 12:45:04;;;;;;;23.40;2.70;;;;;;;4.54;100.00;96748.64;135273;1281;22539;-70
2023/11/24 12:48:06;;;;;;;15.20;2.80;;;;;;;4.54;100.00;96740.81;135266;1281;24394;-71
2023/11/24 12:51:09;;;;;;;;;;;;;;;4.27;100.00;96737.88;135302;1281;22715;-68
2023/11/24 12:54:12;;;;;;;17.30;3.20;;;;;;;4.22;100.00;96738.55;135271;1281;22536;-69
2023/11/24 12:57:14;;;;;;;15.90;3.70;;;;;;;4.19;100.00;96732.88;135250;1267;25440;-71
2023/11/24 13:00:19;;;;;;;;;;;;;;;4.49;100.00;96731.83;135276;1281;23863;-71
2023/11/24 13:03:22;;;;;;;19.60;3.80;;;;;;;4.45;100.00;96734.58;135281;1281;24908;-70
2023/11/24 13:06:24;;;;;;;;;;;;;;;4.24;100.00;96744.13;135267;1281;22513;-71
2023/11/24 13:09:29;;;;;;;15.00;3.50;;;;;;;4.27;100.00;96742.66;135305;1281;22529;-73
2023/11/24 13:12:32;;;;;;;24.20;4.50;;;;;;;4.45;100.00;96733.54;135267;1281;22577;-70
2023/11/24 13:15:34;;;;;;;25.90;7.00;;;;;;;4.45;100.00;96732.11;135299;1272;22566;-70
2023/11/24 13:18:37;;;;;;;26.40;5.20;;;;;;;4.51;100.00;96726.83;135287;1281;22536;-72
2023/11/24 13:21:40;;;;;;;20.60;4.70;;;;;;;4.56;100.00;96722.88;135267;1271;22561;-71
2023/11/24 13:24:42;;;;;;;22.90;5.00;;;;;;;4.52;100.00;96725.92;135254;1280;22566;-71
2023/11/24 13:27:47;;;;;;;40.30;15.20;;;;;;;4.42;100.00;96720.20;135276;1281;22566;-70
2023/11/24 13:30:50;;;;;;;46.40;16.90;;;;;;;4.57;100.00;96715.52;135261;1263;22947;-70
2023/11/24 13:33:52;;;;;;;44.80;16.10;;;;;;;4.57;100.00;96711.38;135261;1281;24434;-70
2023/11/24 13:36:55;;;;;;;74.50;25.30;;;;;;;4.49;100.00;96706.92;135277;1281;22546;-70
2023/11/24 13:39:58;;;;;;;53.10;22.00;;;;;;;4.47;100.00;96703.43;135291;1280;22556;-73
2023/11/24 13:43:01;;;;;;;;;;;;;;;4.43;100.00;96698.34;135263;1272;22521;-72
2023/11/24 13:46:03;;;;;;;52.50;18.90;;;;;;;4.49;100.00;96701.19;135299;1281;22539;-71
2023/11/24 13:49:06;;;;;;;41.00;16.10;;;;;;;4.33;100.00;96701.96;135254;1281;22636;-70
2023/11/24 13:52:10;;;;;;;;;;;;;;;4.25;100.00;96705.52;135306;1281;22521;-71
2023/11/24 13:55:13;;;;;;;39.30;14.10;;;;;;;4.24;100.00;96703.48;135284;1281;25612;-71
2023/11/24 13:58:17;;;;;;;40.30;13.70;;;;;;;4.31;100.00;96706.13;135295;1281;24053;-71
2023/11/24 14:01:19;;;;;;;51.00;14.80;;;;;;;4.37;100.00;96708.48;135289;1281;22547;-72
2023/11/24 14:04:22;;;;;;;;;;;;;;;4.30;100.00;96714.48;135305;1281;25473;-69
2023/11/24 14:07:25;;;;;;;43.20;9.90;;;;;;;4.44;100.00;96714.38;135279;1281;22513;-71
2023/11/24 14:10:28;;;;;;;27.70;7.20;;;;;;;4.44;100.00;96719.74;135289;1281;22566;-70
2023/11/24 14:13:31;;;;;;;31.10;6.60;;;;;;;4.46;100.00;96718.56;135287;1281;22576;-70
2023/11/24 14:16:34;;;;;;;32.90;6.80;;;;;;;4.38;100.00;96714.77;135305;1271;22621;-71
2023/11/24 14:19:37;;;;;;;24.00;6.70;;;;;;;4.45;100.00;96712.73;135308;1281;22544;-72
2023/11/24 14:22:39;;;;;;;;;;;;;;;4.35;100.00;96712.74;135233;1281;22525;-70
2023/11/24 14:25:42;;;;;;;29.80;8.90;;;;;;;4.36;100.00;96712.52;135253;1281;22541;-70
2023/11/24 14:28:44;;;;;;;;;;;;;;;4.31;100.00;96709.05;135250;1281;22551;-69
2023/11/24 14:31:47;;;;;;;33.80;9.10;;;;;;;4.20;100.00;96712.92;135260;1281;24244;-70
2023/11/24 14:34:50;;;;;;;31.60;8.60;;;;;;;4.17;100.00;96707.05;135226;1281;22547;-70
2023/11/24 14:37:54;;;;;;;30.60;8.40;;;;;;;4.13;100.00;96703.70;135247;1281;24236;-71
2023/11/24 14:40:59;;;;;;;31.60;8.00;;;;;;;4.10;100.00;96698.91;135243;1281;22565;-70
2023/11/24 14:44:03;;;;;;;28.10;8.80;;;;;;;4.06;100.00;96699.33;135213;1272;22904;-71
2023/11/24 14:47:06;;;;;;;38.00;11.30;;;;;;;4.00;100.00;96696.09;135267;1276;22573;-71
2023/11/24 14:50:09;;;;;;;40.70;12.90;;;;;;;3.93;100.00;96695.19;135289;1263;22595;-73
2023/11/24 14:53:13;;;;;;;38.30;12.60;;;;;;;3.90;100.00;96687.47;135275;1281;22652;-69
2023/11/24 14:56:16;;;;;;;58.70;21.60;;;;;;;3.97;100.00;96678.67;135301;1281;22541;-70
2023/11/24 14:59:19;;;;;;;61.00;24.70;;;;;;;3.86;100.00;96672.46;135273;1281;22541;-70
2023/11/24 15:02:25;;;;;;;48.00;16.30;;;;;;;3.94;100.00;96665.20;135304;1281;22568;-70
2023/11/24 15:05:30;;;;;;;41.20;14.40;;;;;;;4.00;100.00;96673.99;135302;1281;22562;-70
2023/11/24 15:08:36;;;;;;;33.90;10.70;;;;;;;4.04;100.00;96687.75;135281;1281;22573;-69